sensor_id;sensor_type;location;lat;lon;timestamp;P1;durP1;ratioP1;P2;durP2;ratioP2
18082;SDS011;9168;51.194;6.840;2023-07-30T00:00:31;8.07;;;3.65;;
18082;SDS011;9168;51.194;6.840;2023-07-30T00:02:58;9.25;;;3.50;;
18082;SDS011;9168;51.194;6.840;2023-07-30T00:05:25;13.77;;;3.60;;
18082;SDS011;9168;51.194;6.840;2023-07-30T00:07:52;16.67;;;3.63;;
18082;SDS011;9168;51.194;6.840;2023-07-30T00:10:21;8.18;;;3.47;;
18082;SDS011;9168;51.194;6.840;2023-07-30T00:12:48;18.13;;;3.35;;
18082;SDS011;9168;51.194;6.840;2023-07-30T00:15:15;12.02;;;3.42;;
18082;SDS011;9168;51.194;6.840;2023-07-30T00:17:41;13.02;;;3.50;;
18082;SDS011;9168;51.194;6.840;2023-07-30T00:20:08;12.77;;;2.95;;
18082;SDS011;9168;51.194;6.840;2023-07-30T00:22:35;14.70;;;3.72;;
18082;SDS011;9168;51.194;6.840;2023-07-30T00:25:02;12.75;;;3.53;;
18082;SDS011;9168;51.194;6.840;2023-07-30T00:27:31;14.80;;;4.45;;
18082;SDS011;9168;51.194;6.840;2023-07-30T00:29:58;9.43;;;3.80;;
18082;SDS011;9168;51.194;6.840;2023-07-30T00:32:25;16.13;;;3.50;;
18082;SDS011;9168;51.194;6.840;2023-07-30T00:34:52;14.23;;;3.33;;
18082;SDS011;9168;51.194;6.840;2023-07-30T00:37:19;15.70;;;3.80;;
18082;SDS011;9168;51.194;6.840;2023-07-30T00:39:45;14.60;;;3.60;;
18082;SDS011;9168;51.194;6.840;2023-07-30T00:42:12;10.55;;;3.92;;
18082;SDS011;9168;51.194;6.840;2023-07-30T00:44:40;15.18;;;3.63;;
18082;SDS011;9168;51.194;6.840;2023-07-30T00:47:07;16.67;;;3.60;;
18082;SDS011;9168;51.194;6.840;2023-07-30T00:49:34;16.23;;;3.60;;
18082;SDS011;9168;51.194;6.840;2023-07-30T00:52:02;11.40;;;3.72;;
18082;SDS011;9168;51.194;6.840;2023-07-30T00:54:30;7.47;;;3.15;;
18082;SDS011;9168;51.194;6.840;2023-07-30T00:56:57;11.43;;;3.40;;
18082;SDS011;9168;51.194;6.840;2023-07-30T00:59:24;16.70;;;3.50;;
18082;SDS011;9168;51.194;6.840;2023-07-30T01:01:53;10.38;;;3.72;;
18082;SDS011;9168;51.194;6.840;2023-07-30T01:04:22;14.70;;;4.28;;
18082;SDS011;9168;51.194;6.840;2023-07-30T01:06:50;14.07;;;4.75;;
18082;SDS011;9168;51.194;6.840;2023-07-30T01:09:17;18.48;;;4.45;;
18082;SDS011;9168;51.194;6.840;2023-07-30T01:11:44;15.05;;;4.70;;
18082;SDS011;9168;51.194;6.840;2023-07-30T01:14:11;14.43;;;4.97;;
18082;SDS011;9168;51.194;6.840;2023-07-30T01:16:40;11.82;;;4.10;;
18082;SDS011;9168;51.194;6.840;2023-07-30T01:19:08;17.42;;;4.00;;
18082;SDS011;9168;51.194;6.840;2023-07-30T01:21:37;12.35;;;4.13;;
18082;SDS011;9168;51.194;6.840;2023-07-30T01:24:04;10.27;;;4.20;;
18082;SDS011;9168;51.194;6.840;2023-07-30T01:26:32;8.75;;;3.80;;
18082;SDS011;9168;51.194;6.840;2023-07-30T01:29:03;13.23;;;3.72;;
18082;SDS011;9168;51.194;6.840;2023-07-30T01:31:36;13.40;;;3.85;;
18082;SDS011;9168;51.194;6.840;2023-07-30T01:34:06;13.02;;;4.03;;
18082;SDS011;9168;51.194;6.840;2023-07-30T01:36:35;9.77;;;3.83;;
18082;SDS011;9168;51.194;6.840;2023-07-30T01:39:05;14.63;;;3.45;;
18082;SDS011;9168;51.194;6.840;2023-07-30T01:41:34;17.35;;;3.70;;
18082;SDS011;9168;51.194;6.840;2023-07-30T01:44:01;18.42;;;4.53;;
18082;SDS011;9168;51.194;6.840;2023-07-30T01:46:27;14.60;;;3.92;;
18082;SDS011;9168;51.194;6.840;2023-07-30T01:48:54;9.38;;;3.15;;
18082;SDS011;9168;51.194;6.840;2023-07-30T01:51:21;16.38;;;4.07;;
18082;SDS011;9168;51.194;6.840;2023-07-30T01:53:49;19.98;;;3.40;;
18082;SDS011;9168;51.194;6.840;2023-07-30T01:56:16;19.13;;;3.70;;
18082;SDS011;9168;51.194;6.840;2023-07-30T01:58:43;11.77;;;3.95;;
18082;SDS011;9168;51.194;6.840;2023-07-30T02:01:10;10.65;;;3.50;;
18082;SDS011;9168;51.194;6.840;2023-07-30T02:03:37;12.68;;;3.60;;
18082;SDS011;9168;51.194;6.840;2023-07-30T02:06:04;16.60;;;4.28;;
18082;SDS011;9168;51.194;6.840;2023-07-30T02:08:31;13.02;;;4.28;;
18082;SDS011;9168;51.194;6.840;2023-07-30T02:10:59;14.88;;;3.50;;
18082;SDS011;9168;51.194;6.840;2023-07-30T02:13:26;14.63;;;4.22;;
18082;SDS011;9168;51.194;6.840;2023-07-30T02:15:53;16.00;;;3.70;;
18082;SDS011;9168;51.194;6.840;2023-07-30T02:18:20;12.93;;;3.50;;
18082;SDS011;9168;51.194;6.840;2023-07-30T02:20:47;9.05;;;3.47;;
18082;SDS011;9168;51.194;6.840;2023-07-30T02:23:14;11.23;;;3.63;;
18082;SDS011;9168;51.194;6.840;2023-07-30T02:25:42;18.80;;;3.47;;
18082;SDS011;9168;51.194;6.840;2023-07-30T02:28:10;13.98;;;3.80;;
18082;SDS011;9168;51.194;6.840;2023-07-30T02:30:37;16.55;;;4.00;;
18082;SDS011;9168;51.194;6.840;2023-07-30T02:33:04;15.30;;;3.78;;
18082;SDS011;9168;51.194;6.840;2023-07-30T02:35:31;12.63;;;4.13;;
18082;SDS011;9168;51.194;6.840;2023-07-30T02:37:57;13.20;;;3.85;;
18082;SDS011;9168;51.194;6.840;2023-07-30T02:40:24;13.55;;;3.22;;
18082;SDS011;9168;51.194;6.840;2023-07-30T02:42:51;20.17;;;4.15;;
18082;SDS011;9168;51.194;6.840;2023-07-30T02:45:19;18.42;;;3.92;;
18082;SDS011;9168;51.194;6.840;2023-07-30T02:47:46;16.67;;;4.50;;
18082;SDS011;9168;51.194;6.840;2023-07-30T02:50:13;9.18;;;3.78;;
18082;SDS011;9168;51.194;6.840;2023-07-30T02:52:40;13.07;;;4.25;;
18082;SDS011;9168;51.194;6.840;2023-07-30T02:55:07;12.18;;;3.85;;
18082;SDS011;9168;51.194;6.840;2023-07-30T02:57:34;16.30;;;4.30;;
18082;SDS011;9168;51.194;6.840;2023-07-30T03:00:01;14.15;;;4.15;;
18082;SDS011;9168;51.194;6.840;2023-07-30T03:02:31;16.48;;;3.97;;
18082;SDS011;9168;51.194;6.840;2023-07-30T03:04:57;15.77;;;3.85;;
18082;SDS011;9168;51.194;6.840;2023-07-30T03:07:24;18.90;;;5.18;;
18082;SDS011;9168;51.194;6.840;2023-07-30T03:09:51;11.73;;;3.25;;
18082;SDS011;9168;51.194;6.840;2023-07-30T03:12:18;15.43;;;4.13;;
18082;SDS011;9168;51.194;6.840;2023-07-30T03:14:45;15.35;;;4.25;;
18082;SDS011;9168;51.194;6.840;2023-07-30T03:17:12;12.15;;;4.10;;
18082;SDS011;9168;51.194;6.840;2023-07-30T03:19:40;12.70;;;3.83;;
18082;SDS011;9168;51.194;6.840;2023-07-30T03:22:07;14.32;;;4.07;;
18082;SDS011;9168;51.194;6.840;2023-07-30T03:24:34;18.02;;;5.00;;
18082;SDS011;9168;51.194;6.840;2023-07-30T03:27:01;14.90;;;4.15;;
18082;SDS011;9168;51.194;6.840;2023-07-30T03:29:28;19.58;;;4.68;;
18082;SDS011;9168;51.194;6.840;2023-07-30T03:31:55;14.77;;;4.22;;
18082;SDS011;9168;51.194;6.840;2023-07-30T03:34:21;14.23;;;4.05;;
18082;SDS011;9168;51.194;6.840;2023-07-30T03:36:50;14.45;;;3.88;;
18082;SDS011;9168;51.194;6.840;2023-07-30T03:39:16;17.77;;;4.78;;
18082;SDS011;9168;51.194;6.840;2023-07-30T03:41:43;19.25;;;4.65;;
18082;SDS011;9168;51.194;6.840;2023-07-30T03:44:10;17.73;;;4.43;;
18082;SDS011;9168;51.194;6.840;2023-07-30T03:46:37;19.65;;;4.55;;
18082;SDS011;9168;51.194;6.840;2023-07-30T03:49:04;12.40;;;3.90;;
18082;SDS011;9168;51.194;6.840;2023-07-30T03:51:31;18.63;;;4.50;;
18082;SDS011;9168;51.194;6.840;2023-07-30T03:53:59;12.35;;;3.78;;
18082;SDS011;9168;51.194;6.840;2023-07-30T03:56:26;13.43;;;3.80;;
18082;SDS011;9168;51.194;6.840;2023-07-30T03:58:53;26.02;;;4.68;;
18082;SDS011;9168;51.194;6.840;2023-07-30T04:01:20;11.25;;;3.72;;
18082;SDS011;9168;51.194;6.840;2023-07-30T04:03:47;20.98;;;4.50;;
18082;SDS011;9168;51.194;6.840;2023-07-30T04:06:14;18.42;;;3.97;;
18082;SDS011;9168;51.194;6.840;2023-07-30T04:08:41;14.95;;;3.53;;
18082;SDS011;9168;51.194;6.840;2023-07-30T04:11:09;15.70;;;3.80;;
18082;SDS011;9168;51.194;6.840;2023-07-30T04:13:36;15.60;;;3.42;;
18082;SDS011;9168;51.194;6.840;2023-07-30T04:16:03;15.23;;;3.78;;
18082;SDS011;9168;51.194;6.840;2023-07-30T04:18:30;15.35;;;4.68;;
18082;SDS011;9168;51.194;6.840;2023-07-30T04:20:57;15.93;;;3.80;;
18082;SDS011;9168;51.194;6.840;2023-07-30T04:23:24;10.27;;;3.42;;
18082;SDS011;9168;51.194;6.840;2023-07-30T04:25:51;15.32;;;3.38;;
18082;SDS011;9168;51.194;6.840;2023-07-30T04:28:19;16.10;;;3.50;;
18082;SDS011;9168;51.194;6.840;2023-07-30T04:30:46;16.70;;;4.03;;
18082;SDS011;9168;51.194;6.840;2023-07-30T04:33:13;16.92;;;4.07;;
18082;SDS011;9168;51.194;6.840;2023-07-30T04:35:40;17.15;;;3.65;;
18082;SDS011;9168;51.194;6.840;2023-07-30T04:38:07;15.68;;;3.55;;
18082;SDS011;9168;51.194;6.840;2023-07-30T04:40:34;15.23;;;3.10;;
18082;SDS011;9168;51.194;6.840;2023-07-30T04:43:00;13.60;;;3.13;;
18082;SDS011;9168;51.194;6.840;2023-07-30T04:45:29;14.73;;;3.50;;
18082;SDS011;9168;51.194;6.840;2023-07-30T04:47:56;11.77;;;3.08;;
18082;SDS011;9168;51.194;6.840;2023-07-30T04:50:23;15.60;;;3.22;;
18082;SDS011;9168;51.194;6.840;2023-07-30T04:52:50;9.40;;;2.53;;
18082;SDS011;9168;51.194;6.840;2023-07-30T04:55:17;11.40;;;2.60;;
18082;SDS011;9168;51.194;6.840;2023-07-30T04:57:44;15.82;;;2.65;;
18082;SDS011;9168;51.194;6.840;2023-07-30T05:00:11;16.38;;;3.38;;
18082;SDS011;9168;51.194;6.840;2023-07-30T05:02:40;13.73;;;2.60;;
18082;SDS011;9168;51.194;6.840;2023-07-30T05:05:07;15.90;;;2.72;;
18082;SDS011;9168;51.194;6.840;2023-07-30T05:07:34;14.45;;;2.58;;
18082;SDS011;9168;51.194;6.840;2023-07-30T05:10:01;19.73;;;2.83;;
18082;SDS011;9168;51.194;6.840;2023-07-30T05:12:31;11.93;;;2.72;;
18082;SDS011;9168;51.194;6.840;2023-07-30T05:14:58;14.20;;;2.33;;
18082;SDS011;9168;51.194;6.840;2023-07-30T05:17:24;15.57;;;3.15;;
18082;SDS011;9168;51.194;6.840;2023-07-30T05:19:53;14.25;;;2.15;;
18082;SDS011;9168;51.194;6.840;2023-07-30T05:22:19;11.60;;;2.40;;
18082;SDS011;9168;51.194;6.840;2023-07-30T05:24:46;11.70;;;2.20;;
18082;SDS011;9168;51.194;6.840;2023-07-30T05:27:13;16.13;;;2.70;;
18082;SDS011;9168;51.194;6.840;2023-07-30T05:29:40;11.40;;;2.47;;
18082;SDS011;9168;51.194;6.840;2023-07-30T05:32:07;16.13;;;3.03;;
18082;SDS011;9168;51.194;6.840;2023-07-30T05:34:34;8.60;;;2.28;;
18082;SDS011;9168;51.194;6.840;2023-07-30T05:37:03;18.60;;;2.30;;
18082;SDS011;9168;51.194;6.840;2023-07-30T05:39:30;12.27;;;2.38;;
18082;SDS011;9168;51.194;6.840;2023-07-30T05:41:57;13.48;;;2.95;;
18082;SDS011;9168;51.194;6.840;2023-07-30T05:44:23;15.57;;;2.60;;
18082;SDS011;9168;51.194;6.840;2023-07-30T05:46:50;20.30;;;2.63;;
18082;SDS011;9168;51.194;6.840;2023-07-30T05:49:17;12.18;;;2.17;;
18082;SDS011;9168;51.194;6.840;2023-07-30T05:51:44;16.35;;;2.85;;
18082;SDS011;9168;51.194;6.840;2023-07-30T05:54:12;17.33;;;2.85;;
18082;SDS011;9168;51.194;6.840;2023-07-30T05:56:39;12.57;;;2.55;;
18082;SDS011;9168;51.194;6.840;2023-07-30T05:59:06;16.55;;;3.08;;
18082;SDS011;9168;51.194;6.840;2023-07-30T06:01:33;21.85;;;2.78;;
18082;SDS011;9168;51.194;6.840;2023-07-30T06:04:00;15.93;;;2.90;;
18082;SDS011;9168;51.194;6.840;2023-07-30T06:06:28;16.58;;;3.00;;
18082;SDS011;9168;51.194;6.840;2023-07-30T06:08:55;13.07;;;3.05;;
18082;SDS011;9168;51.194;6.840;2023-07-30T06:11:24;17.60;;;2.60;;
18082;SDS011;9168;51.194;6.840;2023-07-30T06:13:51;9.52;;;2.47;;
18082;SDS011;9168;51.194;6.840;2023-07-30T06:16:18;12.80;;;2.72;;
18082;SDS011;9168;51.194;6.840;2023-07-30T06:18:46;13.43;;;2.83;;
18082;SDS011;9168;51.194;6.840;2023-07-30T06:21:13;15.68;;;2.60;;
18082;SDS011;9168;51.194;6.840;2023-07-30T06:23:40;10.98;;;2.00;;
18082;SDS011;9168;51.194;6.840;2023-07-30T06:26:07;12.27;;;2.42;;
18082;SDS011;9168;51.194;6.840;2023-07-30T06:28:35;12.90;;;2.22;;
18082;SDS011;9168;51.194;6.840;2023-07-30T06:31:02;10.05;;;2.33;;
18082;SDS011;9168;51.194;6.840;2023-07-30T06:33:29;10.77;;;1.90;;
18082;SDS011;9168;51.194;6.840;2023-07-30T06:35:56;18.08;;;2.63;;
18082;SDS011;9168;51.194;6.840;2023-07-30T06:38:23;10.20;;;2.40;;
18082;SDS011;9168;51.194;6.840;2023-07-30T06:40:50;10.27;;;2.10;;
18082;SDS011;9168;51.194;6.840;2023-07-30T06:43:17;16.02;;;2.60;;
18082;SDS011;9168;51.194;6.840;2023-07-30T06:45:45;8.20;;;1.98;;
18082;SDS011;9168;51.194;6.840;2023-07-30T06:48:12;13.18;;;2.50;;
18082;SDS011;9168;51.194;6.840;2023-07-30T06:50:40;9.15;;;2.08;;
18082;SDS011;9168;51.194;6.840;2023-07-30T06:53:07;10.70;;;2.00;;
18082;SDS011;9168;51.194;6.840;2023-07-30T06:55:34;17.13;;;2.70;;
18082;SDS011;9168;51.194;6.840;2023-07-30T06:58:01;18.40;;;2.22;;
18082;SDS011;9168;51.194;6.840;2023-07-30T07:00:28;13.02;;;2.78;;
18082;SDS011;9168;51.194;6.840;2023-07-30T07:02:56;13.05;;;2.30;;
18082;SDS011;9168;51.194;6.840;2023-07-30T07:05:23;15.98;;;2.60;;
18082;SDS011;9168;51.194;6.840;2023-07-30T07:07:50;9.50;;;2.15;;
18082;SDS011;9168;51.194;6.840;2023-07-30T07:10:17;23.25;;;3.25;;
18082;SDS011;9168;51.194;6.840;2023-07-30T07:12:44;11.68;;;2.30;;
18082;SDS011;9168;51.194;6.840;2023-07-30T07:15:11;13.93;;;2.83;;
18082;SDS011;9168;51.194;6.840;2023-07-30T07:17:38;12.32;;;2.55;;
18082;SDS011;9168;51.194;6.840;2023-07-30T07:20:07;10.02;;;2.47;;
18082;SDS011;9168;51.194;6.840;2023-07-30T07:22:35;18.80;;;2.53;;
18082;SDS011;9168;51.194;6.840;2023-07-30T07:25:02;11.10;;;2.70;;
18082;SDS011;9168;51.194;6.840;2023-07-30T07:27:29;17.17;;;2.90;;
18082;SDS011;9168;51.194;6.840;2023-07-30T07:29:56;21.30;;;3.28;;
18082;SDS011;9168;51.194;6.840;2023-07-30T07:32:24;16.20;;;2.65;;
18082;SDS011;9168;51.194;6.840;2023-07-30T07:34:51;20.05;;;3.17;;
18082;SDS011;9168;51.194;6.840;2023-07-30T07:37:19;20.52;;;3.63;;
18082;SDS011;9168;51.194;6.840;2023-07-30T07:39:47;16.42;;;3.05;;
18082;SDS011;9168;51.194;6.840;2023-07-30T07:42:14;15.40;;;2.95;;
18082;SDS011;9168;51.194;6.840;2023-07-30T07:44:41;14.35;;;2.90;;
18082;SDS011;9168;51.194;6.840;2023-07-30T07:47:11;19.55;;;3.42;;
18082;SDS011;9168;51.194;6.840;2023-07-30T07:49:37;18.02;;;3.50;;
18082;SDS011;9168;51.194;6.840;2023-07-30T07:52:05;15.40;;;2.83;;
18082;SDS011;9168;51.194;6.840;2023-07-30T07:54:33;15.77;;;2.90;;
18082;SDS011;9168;51.194;6.840;2023-07-30T07:57:00;22.27;;;3.35;;
18082;SDS011;9168;51.194;6.840;2023-07-30T07:59:27;22.90;;;3.75;;
18082;SDS011;9168;51.194;6.840;2023-07-30T08:01:54;15.32;;;3.42;;
18082;SDS011;9168;51.194;6.840;2023-07-30T08:04:21;23.58;;;3.08;;
18082;SDS011;9168;51.194;6.840;2023-07-30T08:06:48;13.85;;;3.00;;
18082;SDS011;9168;51.194;6.840;2023-07-30T08:09:15;20.42;;;3.28;;
18082;SDS011;9168;51.194;6.840;2023-07-30T08:11:44;20.60;;;3.75;;
18082;SDS011;9168;51.194;6.840;2023-07-30T08:14:10;16.92;;;3.20;;
18082;SDS011;9168;51.194;6.840;2023-07-30T08:16:37;13.68;;;3.10;;
18082;SDS011;9168;51.194;6.840;2023-07-30T08:19:04;19.27;;;3.47;;
18082;SDS011;9168;51.194;6.840;2023-07-30T08:21:31;16.17;;;3.30;;
18082;SDS011;9168;51.194;6.840;2023-07-30T08:23:58;22.35;;;3.65;;
18082;SDS011;9168;51.194;6.840;2023-07-30T08:26:25;17.27;;;3.17;;
18082;SDS011;9168;51.194;6.840;2023-07-30T08:28:53;19.65;;;3.33;;
18082;SDS011;9168;51.194;6.840;2023-07-30T08:31:20;21.15;;;3.20;;
18082;SDS011;9168;51.194;6.840;2023-07-30T08:33:47;23.30;;;3.53;;
18082;SDS011;9168;51.194;6.840;2023-07-30T08:36:14;24.77;;;3.90;;
18082;SDS011;9168;51.194;6.840;2023-07-30T08:38:40;17.52;;;3.38;;
18082;SDS011;9168;51.194;6.840;2023-07-30T08:41:07;24.80;;;4.05;;
18082;SDS011;9168;51.194;6.840;2023-07-30T08:43:34;18.75;;;3.75;;
18082;SDS011;9168;51.194;6.840;2023-07-30T08:46:03;18.55;;;3.40;;
18082;SDS011;9168;51.194;6.840;2023-07-30T08:48:30;20.80;;;3.33;;
18082;SDS011;9168;51.194;6.840;2023-07-30T08:50:57;28.63;;;3.90;;
18082;SDS011;9168;51.194;6.840;2023-07-30T08:53:25;26.80;;;4.03;;
18082;SDS011;9168;51.194;6.840;2023-07-30T08:55:52;25.48;;;4.13;;
18082;SDS011;9168;51.194;6.840;2023-07-30T08:58:20;18.42;;;3.50;;
18082;SDS011;9168;51.194;6.840;2023-07-30T09:00:48;30.77;;;4.32;;
18082;SDS011;9168;51.194;6.840;2023-07-30T09:03:17;12.45;;;3.15;;
18082;SDS011;9168;51.194;6.840;2023-07-30T09:05:46;19.13;;;3.88;;
18082;SDS011;9168;51.194;6.840;2023-07-30T09:08:14;18.67;;;3.10;;
18082;SDS011;9168;51.194;6.840;2023-07-30T09:10:41;14.00;;;2.97;;
18082;SDS011;9168;51.194;6.840;2023-07-30T09:13:08;15.27;;;2.92;;
18082;SDS011;9168;51.194;6.840;2023-07-30T09:15:36;26.08;;;4.30;;
18082;SDS011;9168;51.194;6.840;2023-07-30T09:18:04;17.80;;;3.53;;
18082;SDS011;9168;51.194;6.840;2023-07-30T09:20:40;16.08;;;3.05;;
18082;SDS011;9168;51.194;6.840;2023-07-30T09:23:08;20.00;;;3.50;;
18082;SDS011;9168;51.194;6.840;2023-07-30T09:25:36;17.60;;;3.55;;
18082;SDS011;9168;51.194;6.840;2023-07-30T09:28:04;16.80;;;3.28;;
18082;SDS011;9168;51.194;6.840;2023-07-30T09:30:32;19.77;;;3.33;;
18082;SDS011;9168;51.194;6.840;2023-07-30T09:32:59;19.92;;;3.47;;
18082;SDS011;9168;51.194;6.840;2023-07-30T09:35:26;20.40;;;3.25;;
18082;SDS011;9168;51.194;6.840;2023-07-30T09:37:58;17.83;;;3.42;;
18082;SDS011;9168;51.194;6.840;2023-07-30T09:40:30;13.98;;;3.03;;
18082;SDS011;9168;51.194;6.840;2023-07-30T09:42:58;25.27;;;4.03;;
18082;SDS011;9168;51.194;6.840;2023-07-30T09:45:25;17.50;;;3.47;;
18082;SDS011;9168;51.194;6.840;2023-07-30T09:47:53;17.95;;;3.78;;
18082;SDS011;9168;51.194;6.840;2023-07-30T09:50:21;15.05;;;2.75;;
18082;SDS011;9168;51.194;6.840;2023-07-30T09:52:48;12.02;;;2.85;;
18082;SDS011;9168;51.194;6.840;2023-07-30T09:55:17;14.25;;;3.00;;
18082;SDS011;9168;51.194;6.840;2023-07-30T09:57:44;17.08;;;2.92;;
18082;SDS011;9168;51.194;6.840;2023-07-30T10:00:11;13.88;;;2.70;;
18082;SDS011;9168;51.194;6.840;2023-07-30T10:02:40;13.82;;;3.13;;
18082;SDS011;9168;51.194;6.840;2023-07-30T10:05:11;19.42;;;3.97;;
18082;SDS011;9168;51.194;6.840;2023-07-30T10:07:48;16.27;;;3.13;;
18082;SDS011;9168;51.194;6.840;2023-07-30T10:10:21;14.80;;;2.72;;
18082;SDS011;9168;51.194;6.840;2023-07-30T10:12:50;17.77;;;3.00;;
18082;SDS011;9168;51.194;6.840;2023-07-30T10:15:19;17.48;;;2.90;;
18082;SDS011;9168;51.194;6.840;2023-07-30T10:17:48;13.93;;;3.05;;
18082;SDS011;9168;51.194;6.840;2023-07-30T10:20:22;14.27;;;3.20;;
18082;SDS011;9168;51.194;6.840;2023-07-30T10:22:51;14.23;;;2.78;;
18082;SDS011;9168;51.194;6.840;2023-07-30T10:25:21;15.15;;;3.10;;
18082;SDS011;9168;51.194;6.840;2023-07-30T10:27:49;10.38;;;2.40;;
18082;SDS011;9168;51.194;6.840;2023-07-30T10:30:17;11.57;;;2.38;;
18082;SDS011;9168;51.194;6.840;2023-07-30T10:32:58;15.77;;;2.72;;
18082;SDS011;9168;51.194;6.840;2023-07-30T10:35:39;16.23;;;2.92;;
18082;SDS011;9168;51.194;6.840;2023-07-30T10:38:14;17.10;;;2.78;;
18082;SDS011;9168;51.194;6.840;2023-07-30T10:40:43;15.05;;;3.50;;
18082;SDS011;9168;51.194;6.840;2023-07-30T10:43:27;14.30;;;2.60;;
18082;SDS011;9168;51.194;6.840;2023-07-30T10:45:55;15.02;;;2.60;;
18082;SDS011;9168;51.194;6.840;2023-07-30T10:48:29;17.35;;;3.22;;
18082;SDS011;9168;51.194;6.840;2023-07-30T10:50:57;17.65;;;2.78;;
18082;SDS011;9168;51.194;6.840;2023-07-30T10:53:27;9.98;;;2.67;;
18082;SDS011;9168;51.194;6.840;2023-07-30T10:55:56;12.38;;;2.55;;
18082;SDS011;9168;51.194;6.840;2023-07-30T10:58:25;10.35;;;2.55;;
18082;SDS011;9168;51.194;6.840;2023-07-30T11:00:52;16.08;;;3.13;;
18082;SDS011;9168;51.194;6.840;2023-07-30T11:03:19;8.43;;;2.47;;
18082;SDS011;9168;51.194;6.840;2023-07-30T11:05:47;16.02;;;2.55;;
18082;SDS011;9168;51.194;6.840;2023-07-30T11:08:14;11.50;;;2.28;;
18082;SDS011;9168;51.194;6.840;2023-07-30T11:10:41;14.65;;;2.78;;
18082;SDS011;9168;51.194;6.840;2023-07-30T11:13:11;11.38;;;2.00;;
18082;SDS011;9168;51.194;6.840;2023-07-30T11:15:42;15.00;;;2.50;;
18082;SDS011;9168;51.194;6.840;2023-07-30T11:18:09;15.68;;;2.85;;
18082;SDS011;9168;51.194;6.840;2023-07-30T11:20:37;9.23;;;1.85;;
18082;SDS011;9168;51.194;6.840;2023-07-30T11:23:16;16.42;;;2.40;;
18082;SDS011;9168;51.194;6.840;2023-07-30T11:25:45;9.95;;;2.22;;
18082;SDS011;9168;51.194;6.840;2023-07-30T11:28:15;9.20;;;1.80;;
18082;SDS011;9168;51.194;6.840;2023-07-30T11:30:53;14.05;;;2.20;;
18082;SDS011;9168;51.194;6.840;2023-07-30T11:33:20;9.40;;;2.40;;
18082;SDS011;9168;51.194;6.840;2023-07-30T11:35:47;10.60;;;2.35;;
18082;SDS011;9168;51.194;6.840;2023-07-30T11:38:14;11.82;;;2.50;;
18082;SDS011;9168;51.194;6.840;2023-07-30T11:40:42;8.40;;;2.40;;
18082;SDS011;9168;51.194;6.840;2023-07-30T11:43:09;10.13;;;2.70;;
18082;SDS011;9168;51.194;6.840;2023-07-30T11:45:38;14.15;;;3.00;;
18082;SDS011;9168;51.194;6.840;2023-07-30T11:48:05;9.25;;;2.45;;
18082;SDS011;9168;51.194;6.840;2023-07-30T11:50:42;9.98;;;2.33;;
18082;SDS011;9168;51.194;6.840;2023-07-30T11:53:10;11.80;;;2.30;;
18082;SDS011;9168;51.194;6.840;2023-07-30T11:55:37;12.07;;;2.40;;
18082;SDS011;9168;51.194;6.840;2023-07-30T11:58:04;11.23;;;2.40;;
18082;SDS011;9168;51.194;6.840;2023-07-30T12:00:31;9.55;;;2.25;;
18082;SDS011;9168;51.194;6.840;2023-07-30T12:03:00;14.75;;;3.38;;
18082;SDS011;9168;51.194;6.840;2023-07-30T12:05:31;10.32;;;2.47;;
18082;SDS011;9168;51.194;6.840;2023-07-30T12:08:00;9.60;;;2.42;;
18082;SDS011;9168;51.194;6.840;2023-07-30T12:10:28;10.30;;;2.80;;
18082;SDS011;9168;51.194;6.840;2023-07-30T12:13:11;7.95;;;2.20;;
18082;SDS011;9168;51.194;6.840;2023-07-30T12:15:38;14.65;;;2.58;;
18082;SDS011;9168;51.194;6.840;2023-07-30T12:18:06;8.82;;;1.80;;
18082;SDS011;9168;51.194;6.840;2023-07-30T12:20:33;11.13;;;2.17;;
18082;SDS011;9168;51.194;6.840;2023-07-30T12:23:01;8.07;;;2.22;;
18082;SDS011;9168;51.194;6.840;2023-07-30T12:25:28;13.02;;;2.45;;
18082;SDS011;9168;51.194;6.840;2023-07-30T12:27:55;6.20;;;1.70;;
18082;SDS011;9168;51.194;6.840;2023-07-30T12:30:21;7.88;;;1.90;;
18082;SDS011;9168;51.194;6.840;2023-07-30T12:32:48;9.93;;;1.85;;
18082;SDS011;9168;51.194;6.840;2023-07-30T12:35:17;9.88;;;2.28;;
18082;SDS011;9168;51.194;6.840;2023-07-30T12:37:43;8.30;;;1.95;;
18082;SDS011;9168;51.194;6.840;2023-07-30T12:40:11;8.77;;;2.38;;
18082;SDS011;9168;51.194;6.840;2023-07-30T12:42:38;7.18;;;2.03;;
18082;SDS011;9168;51.194;6.840;2023-07-30T12:45:05;7.97;;;1.80;;
18082;SDS011;9168;51.194;6.840;2023-07-30T12:47:32;6.55;;;1.90;;
18082;SDS011;9168;51.194;6.840;2023-07-30T12:50:00;6.13;;;1.73;;
18082;SDS011;9168;51.194;6.840;2023-07-30T12:52:28;5.35;;;1.92;;
18082;SDS011;9168;51.194;6.840;2023-07-30T12:54:55;10.55;;;2.05;;
18082;SDS011;9168;51.194;6.840;2023-07-30T12:57:22;7.80;;;2.08;;
18082;SDS011;9168;51.194;6.840;2023-07-30T12:59:49;7.45;;;1.70;;
18082;SDS011;9168;51.194;6.840;2023-07-30T13:02:16;6.97;;;2.00;;
18082;SDS011;9168;51.194;6.840;2023-07-30T13:04:43;17.98;;;2.97;;
18082;SDS011;9168;51.194;6.840;2023-07-30T13:07:10;11.07;;;2.28;;
18082;SDS011;9168;51.194;6.840;2023-07-30T13:09:38;9.15;;;2.50;;
18082;SDS011;9168;51.194;6.840;2023-07-30T13:12:05;8.32;;;2.00;;
18082;SDS011;9168;51.194;6.840;2023-07-30T13:14:33;9.20;;;2.03;;
18082;SDS011;9168;51.194;6.840;2023-07-30T13:16:59;9.68;;;2.25;;
18082;SDS011;9168;51.194;6.840;2023-07-30T13:19:26;10.43;;;2.47;;
18082;SDS011;9168;51.194;6.840;2023-07-30T13:21:55;13.75;;;2.60;;
18082;SDS011;9168;51.194;6.840;2023-07-30T13:24:22;13.40;;;2.42;;
18082;SDS011;9168;51.194;6.840;2023-07-30T13:26:50;12.00;;;2.90;;
18082;SDS011;9168;51.194;6.840;2023-07-30T13:29:17;11.98;;;2.80;;
18082;SDS011;9168;51.194;6.840;2023-07-30T13:31:44;7.53;;;2.10;;
18082;SDS011;9168;51.194;6.840;2023-07-30T13:34:10;11.38;;;2.45;;
18082;SDS011;9168;51.194;6.840;2023-07-30T13:36:37;11.07;;;2.38;;
18082;SDS011;9168;51.194;6.840;2023-07-30T13:39:04;13.77;;;2.40;;
18082;SDS011;9168;51.194;6.840;2023-07-30T13:41:31;10.55;;;2.38;;
18082;SDS011;9168;51.194;6.840;2023-07-30T13:43:59;12.07;;;2.58;;
18082;SDS011;9168;51.194;6.840;2023-07-30T13:46:26;13.80;;;2.60;;
18082;SDS011;9168;51.194;6.840;2023-07-30T13:48:53;11.63;;;2.70;;
18082;SDS011;9168;51.194;6.840;2023-07-30T13:51:20;9.75;;;1.92;;
18082;SDS011;9168;51.194;6.840;2023-07-30T13:53:47;10.43;;;2.58;;
18082;SDS011;9168;51.194;6.840;2023-07-30T13:56:13;11.07;;;2.25;;
18082;SDS011;9168;51.194;6.840;2023-07-30T13:58:40;8.63;;;2.03;;
18082;SDS011;9168;51.194;6.840;2023-07-30T14:01:09;6.88;;;1.98;;
18082;SDS011;9168;51.194;6.840;2023-07-30T14:03:36;10.60;;;2.35;;
18082;SDS011;9168;51.194;6.840;2023-07-30T14:06:03;9.55;;;2.10;;
18082;SDS011;9168;51.194;6.840;2023-07-30T14:08:30;15.30;;;2.70;;
18082;SDS011;9168;51.194;6.840;2023-07-30T14:10:57;9.73;;;2.20;;
18082;SDS011;9168;51.194;6.840;2023-07-30T14:13:25;10.05;;;2.22;;
18082;SDS011;9168;51.194;6.840;2023-07-30T14:15:52;13.43;;;2.17;;
18082;SDS011;9168;51.194;6.840;2023-07-30T14:18:21;9.20;;;2.22;;
18082;SDS011;9168;51.194;6.840;2023-07-30T14:20:48;7.22;;;2.50;;
18082;SDS011;9168;51.194;6.840;2023-07-30T14:23:15;14.73;;;2.70;;
18082;SDS011;9168;51.194;6.840;2023-07-30T14:25:42;15.65;;;2.55;;
18082;SDS011;9168;51.194;6.840;2023-07-30T14:28:09;13.38;;;2.40;;
18082;SDS011;9168;51.194;6.840;2023-07-30T14:30:36;15.20;;;2.63;;
18082;SDS011;9168;51.194;6.840;2023-07-30T14:33:09;15.02;;;3.08;;
18082;SDS011;9168;51.194;6.840;2023-07-30T14:35:37;9.73;;;2.20;;
18082;SDS011;9168;51.194;6.840;2023-07-30T14:38:04;11.63;;;2.55;;
18082;SDS011;9168;51.194;6.840;2023-07-30T14:40:31;9.80;;;2.13;;
18082;SDS011;9168;51.194;6.840;2023-07-30T14:42:58;11.93;;;2.33;;
18082;SDS011;9168;51.194;6.840;2023-07-30T14:45:25;8.43;;;2.38;;
18082;SDS011;9168;51.194;6.840;2023-07-30T14:47:52;13.73;;;2.95;;
18082;SDS011;9168;51.194;6.840;2023-07-30T14:50:19;11.68;;;2.38;;
18082;SDS011;9168;51.194;6.840;2023-07-30T14:52:47;10.18;;;2.60;;